Time;durP1;ratioP1;P1;durP2;ratioP2;P2;SDS_P1;SDS_P2;PMS_P1;PMS_P2;Temp;Humidity;BMP_temperature;BMP_pressure;BME280_temperature;BME280_humidity;BME280_pressure;Samples;Min_cycle;Max_cycle;Signal;HPM_P1;HPM_P2
2022/08/26 00:00:38;;;;;;;12.93;10.13;;;;;;;;;;5045359;28;20190;-62
2022/08/26 00:03:10;;;;;;;12.77;10.23;;;;;;;;;;5058405;28;20217;-62
2022/08/26 00:05:46;;;;;;;13.13;10.83;;;;;;;;;;5033740;28;20313;-62
2022/08/26 00:08:19;;;;;;;15.47;11.60;;;;;;;;;;5037221;28;20691;-62
2022/08/26 00:10:51;;;;;;;12.27;9.90;;;;;;;;;;5023957;28;20194;-62
2022/08/26 00:13:28;;;;;;;11.63;10.27;;;;;;;;;;5027557;28;20323;-62
2022/08/26 00:16:00;;;;;;;13.77;10.17;;;;;;;;;;5046898;28;20778;-62
2022/08/26 00:18:33;;;;;;;11.40;9.60;;;;;;;;;;5031943;28;20201;-62
2022/08/26 00:21:09;;;;;;;11.73;9.03;;;;;;;;;;5037551;28;20566;-62
2022/08/26 00:23:40;;;;;;;11.67;10.00;;;;;;;;;;5035939;28;20210;-62
2022/08/26 00:26:10;;;;;;;10.17;9.13;;;;;;;;;;5041165;28;20197;-62
2022/08/26 00:28:39;;;;;;;11.90;9.17;;;;;;;;;;5040665;28;20739;-62
2022/08/26 00:31:08;;;;;;;10.07;8.13;;;;;;;;;;5017512;28;20250;-62
2022/08/26 00:33:39;;;;;;;12.97;8.03;;;;;;;;;;5037221;28;20199;-62
2022/08/26 00:36:09;;;;;;;9.10;8.10;;;;;;;;;;5046158;28;20230;-62
2022/08/26 00:38:47;;;;;;;10.57;7.63;;;;;;;;;;5019754;28;20205;-62
2022/08/26 00:41:24;;;;;;;10.10;7.50;;;;;;;;;;5033595;28;20542;-62
2022/08/26 00:44:05;;;;;;;9.53;7.00;;;;;;;;;;5045751;28;20236;-62
2022/08/26 00:46:38;;;;;;;9.23;6.70;;;;;;;;;;5036836;28;20655;-62
2022/08/26 00:49:19;;;;;;;8.80;6.63;;;;;;;;;;5044948;28;20523;-62
2022/08/26 00:51:54;;;;;;;8.87;6.00;;;;;;;;;;5039591;28;20197;-62
2022/08/26 00:54:25;;;;;;;8.00;6.07;;;;;;;;;;5027913;28;20209;-61
2022/08/26 00:56:58;;;;;;;7.47;5.87;;;;;;;;;;5027932;28;20281;-62
2022/08/26 00:59:29;;;;;;;7.20;5.97;;;;;;;;;;5037225;28;20199;-62
2022/08/26 01:02:01;;;;;;;8.10;5.53;;;;;;;;;;5033132;28;20675;-62
2022/08/26 01:04:39;;;;;;;7.70;5.10;;;;;;;;;;5032455;28;20721;-62
2022/08/26 01:07:09;;;;;;;7.20;4.80;;;;;;;;;;5073993;28;20267;-62
2022/08/26 01:09:41;;;;;;;5.63;4.80;;;;;;;;;;5065601;28;20658;-62
2022/08/26 01:12:12;;;;;;;5.43;4.57;;;;;;;;;;5067542;28;20193;-62
2022/08/26 01:14:49;;;;;;;5.13;3.60;;;;;;;;;;5061037;28;20198;-62
2022/08/26 01:17:20;;;;;;;8.07;4.60;;;;;;;;;;5068639;28;20190;-62
2022/08/26 01:19:59;;;;;;;5.77;4.20;;;;;;;;;;5055507;28;20213;-62
2022/08/26 01:22:31;;;;;;;6.33;4.20;;;;;;;;;;5056753;28;20627;-62
2022/08/26 01:25:02;;;;;;;5.53;3.73;;;;;;;;;;5063281;28;20205;-62
2022/08/26 01:27:35;;;;;;;5.07;3.87;;;;;;;;;;5054516;28;20209;-62
2022/08/26 01:30:06;;;;;;;5.10;3.00;;;;;;;;;;5051885;28;20682;-62
2022/08/26 01:32:35;;;;;;;6.03;3.63;;;;;;;;;;5063601;28;20190;-62
2022/08/26 01:35:08;;;;;;;4.60;3.20;;;;;;;;;;5068020;28;20193;-62
2022/08/26 01:37:41;;;;;;;5.23;3.30;;;;;;;;;;5076754;28;20208;-62
2022/08/26 01:40:14;;;;;;;4.33;2.80;;;;;;;;;;5059382;28;20200;-62
2022/08/26 01:43:07;;;;;;;6.23;2.90;;;;;;;;;;5073737;28;20821;-62
2022/08/26 01:45:46;;;;;;;4.83;2.60;;;;;;;;;;5088067;28;20193;-62
2022/08/26 01:48:21;;;;;;;4.90;2.90;;;;;;;;;;5070001;28;20185;-62
2022/08/26 01:50:51;;;;;;;4.53;2.80;;;;;;;;;;5089613;28;20661;-62
2022/08/26 01:53:23;;;;;;;5.17;2.43;;;;;;;;;;5081749;28;20217;-62
2022/08/26 01:56:01;;;;;;;5.00;2.30;;;;;;;;;;5069153;28;20215;-62
2022/08/26 01:58:46;;;;;;;3.93;2.33;;;;;;;;;;5088033;28;20189;-62
2022/08/26 02:01:20;;;;;;;3.33;2.43;;;;;;;;;;5079666;28;20197;-62
2022/08/26 02:04:07;;;;;;;3.70;2.30;;;;;;;;;;5074825;28;20216;-62
2022/08/26 02:06:41;;;;;;;5.07;2.70;;;;;;;;;;5057101;28;20283;-61
2022/08/26 02:09:14;;;;;;;5.40;2.70;;;;;;;;;;5054286;28;20190;-62
2022/08/26 02:11:44;;;;;;;7.17;2.53;;;;;;;;;;5066302;28;20198;-61
2022/08/26 02:14:18;;;;;;;3.10;2.43;;;;;;;;;;5054912;28;20584;-62
2022/08/26 02:16:53;;;;;;;3.60;2.50;;;;;;;;;;5050478;28;20654;-62
2022/08/26 02:19:26;;;;;;;5.93;2.63;;;;;;;;;;5055323;28;20352;-62
2022/08/26 02:22:00;;;;;;;3.60;2.43;;;;;;;;;;5053512;28;20216;-62
2022/08/26 02:24:45;;;;;;;3.27;2.17;;;;;;;;;;5044567;28;20225;-62
2022/08/26 02:27:18;;;;;;;5.80;2.50;;;;;;;;;;5049715;28;20215;-62
2022/08/26 02:29:55;;;;;;;4.30;2.37;;;;;;;;;;5051719;28;20536;-62
2022/08/26 02:32:27;;;;;;;3.40;2.13;;;;;;;;;;5051854;28;20245;-62
2022/08/26 02:35:03;;;;;;;3.47;2.20;;;;;;;;;;5053270;28;20197;-62
2022/08/26 02:37:32;;;;;;;3.23;2.20;;;;;;;;;;5067465;28;20213;-62
2022/08/26 02:40:07;;;;;;;3.40;2.10;;;;;;;;;;5043614;28;20268;-62
2022/08/26 02:42:39;;;;;;;3.00;2.10;;;;;;;;;;5036719;28;20592;-62
2022/08/26 02:45:09;;;;;;;4.63;2.03;;;;;;;;;;5062300;28;20221;-62
2022/08/26 02:47:43;;;;;;;2.57;1.83;;;;;;;;;;5057761;28;20255;-62
2022/08/26 02:50:16;;;;;;;2.90;2.00;;;;;;;;;;5053287;28;20214;-62
2022/08/26 02:52:49;;;;;;;3.40;2.10;;;;;;;;;;5058756;28;20197;-62
2022/08/26 02:55:22;;;;;;;5.53;1.93;;;;;;;;;;5040158;28;20240;-62
2022/08/26 02:57:57;;;;;;;3.30;2.00;;;;;;;;;;5072496;28;20197;-62
2022/08/26 03:00:32;;;;;;;3.23;1.77;;;;;;;;;;5062329;28;20679;-62
2022/08/26 03:03:02;;;;;;;2.73;1.87;;;;;;;;;;5047125;28;20194;-62
2022/08/26 03:05:32;;;;;;;2.77;1.70;;;;;;;;;;5054026;28;20201;-62
2022/08/26 03:08:07;;;;;;;4.13;2.10;;;;;;;;;;5055351;28;20214;-62
2022/08/26 03:10:39;;;;;;;2.83;1.80;;;;;;;;;;5062272;28;20649;-62
2022/08/26 03:13:18;;;;;;;3.27;1.80;;;;;;;;;;5050447;28;20199;-62
2022/08/26 03:15:51;;;;;;;2.33;1.83;;;;;;;;;;5058967;28;20218;-62
2022/08/26 03:18:23;;;;;;;2.93;1.90;;;;;;;;;;5061032;28;20201;-62
2022/08/26 03:20:54;;;;;;;4.20;1.63;;;;;;;;;;5062830;28;20635;-62
2022/08/26 03:23:39;;;;;;;3.10;1.90;;;;;;;;;;5045759;28;20218;-62
2022/08/26 03:26:11;;;;;;;3.60;2.10;;;;;;;;;;5034280;28;20196;-62
2022/08/26 03:31:37;;;;;;;2.27;1.40;;;;;;;;;;5051316;28;20237;-62
2022/08/26 03:34:07;;;;;;;4.20;2.10;;;;;;;;;;5060986;28;20615;-62
2022/08/26 03:36:42;;;;;;;3.30;2.00;;;;;;;;;;5060217;28;20210;-62
2022/08/26 03:39:16;;;;;;;2.97;1.83;;;;;;;;;;5056465;28;20185;-62
2022/08/26 03:41:47;;;;;;;3.07;2.00;;;;;;;;;;5061736;28;20224;-62
2022/08/26 03:44:18;;;;;;;5.17;1.60;;;;;;;;;;5032879;28;20218;-62
2022/08/26 03:46:48;;;;;;;3.60;1.50;;;;;;;;;;5036922;28;20260;-62
2022/08/26 03:49:21;;;;;;;2.37;1.77;;;;;;;;;;5051285;28;20213;-62
2022/08/26 03:51:51;;;;;;;2.87;1.70;;;;;;;;;;5056775;28;20226;-62
2022/08/26 03:54:20;;;;;;;3.00;1.93;;;;;;;;;;5058268;28;20596;-62
2022/08/26 03:56:51;;;;;;;3.57;2.10;;;;;;;;;;5056112;28;20605;-62
2022/08/26 03:59:29;;;;;;;3.07;1.70;;;;;;;;;;5065592;28;20220;-62
2022/08/26 04:02:02;;;;;;;3.27;1.80;;;;;;;;;;5065621;28;20212;-62
2022/08/26 04:04:39;;;;;;;2.97;1.40;;;;;;;;;;5057519;28;20232;-62
2022/08/26 04:07:15;;;;;;;3.57;1.97;;;;;;;;;;5062242;28;20225;-62
2022/08/26 04:09:45;;;;;;;3.90;1.93;;;;;;;;;;5058672;28;20183;-62
2022/08/26 04:12:15;;;;;;;2.80;1.57;;;;;;;;;;5066265;28;20197;-62
2022/08/26 04:14:46;;;;;;;3.93;1.93;;;;;;;;;;5055279;28;20190;-62
2022/08/26 04:17:28;;;;;;;2.97;1.70;;;;;;;;;;5049901;28;20205;-62
2022/08/26 04:20:05;;;;;;;4.43;1.80;;;;;;;;;;5063612;28;20590;-62
2022/08/26 04:22:50;;;;;;;2.30;1.50;;;;;;;;;;5053864;28;20342;-62
2022/08/26 04:25:22;;;;;;;2.87;1.40;;;;;;;;;;5066291;28;20547;-62
2022/08/26 04:27:54;;;;;;;4.13;1.83;;;;;;;;;;5066149;28;20654;-62
2022/08/26 04:30:25;;;;;;;3.30;1.83;;;;;;;;;;5065445;28;20262;-64
2022/08/26 04:32:52;;;;;;;3.20;1.70;;;;;;;;;;5056098;28;20202;-65
2022/08/26 04:35:28;;;;;;;3.73;1.53;;;;;;;;;;5068987;28;20219;-63
2022/08/26 04:37:59;;;;;;;3.87;1.70;;;;;;;;;;5063301;28;20202;-62
2022/08/26 04:40:34;;;;;;;2.83;1.60;;;;;;;;;;5061253;28;20280;-64
2022/08/26 04:43:06;;;;;;;2.57;1.30;;;;;;;;;;5053354;28;20215;-65
2022/08/26 04:45:40;;;;;;;2.57;1.50;;;;;;;;;;5069943;28;20221;-62
2022/08/26 04:48:10;;;;;;;3.10;1.57;;;;;;;;;;5067177;28;20222;-62
2022/08/26 04:50:46;;;;;;;1.80;1.33;;;;;;;;;;5065999;28;20204;-61
2022/08/26 04:53:15;;;;;;;2.70;1.53;;;;;;;;;;5052016;28;20185;-62
2022/08/26 04:55:44;;;;;;;5.13;1.53;;;;;;;;;;5064994;28;20232;-62
2022/08/26 04:58:18;;;;;;;3.70;1.53;;;;;;;;;;5069084;28;20292;-62
2022/08/26 05:01:03;;;;;;;5.83;1.50;;;;;;;;;;5055061;28;20233;-62
2022/08/26 05:03:37;;;;;;;3.93;1.87;;;;;;;;;;5044653;28;20202;-62
2022/08/26 05:06:11;;;;;;;1.97;1.30;;;;;;;;;;5073462;28;20673;-63
2022/08/26 05:08:48;;;;;;;3.23;1.47;;;;;;;;;;5043977;28;20734;-62
2022/08/26 05:11:32;;;;;;;4.13;1.63;;;;;;;;;;5066429;28;20234;-65
2022/08/26 05:14:01;;;;;;;4.63;1.43;;;;;;;;;;5052894;28;20583;-65
2022/08/26 05:16:32;;;;;;;2.80;1.50;;;;;;;;;;5051756;28;20221;-62
2022/08/26 05:19:05;;;;;;;2.50;1.27;;;;;;;;;;5048870;28;20221;-63
2022/08/26 05:21:37;;;;;;;2.60;1.50;;;;;;;;;;5056552;28;20190;-62
2022/08/26 05:24:10;;;;;;;3.73;1.60;;;;;;;;;;5055141;28;20254;-62
2022/08/26 05:26:47;;;;;;;2.73;1.47;;;;;;;;;;5058709;28;20465;-65
2022/08/26 05:29:17;;;;;;;2.67;1.27;;;;;;;;;;5069776;28;20194;-64
2022/08/26 05:31:50;;;;;;;3.07;1.50;;;;;;;;;;5059860;28;20221;-65
2022/08/26 05:34:23;;;;;;;5.20;1.50;;;;;;;;;;5045179;28;20638;-65
2022/08/26 05:36:58;;;;;;;3.50;1.63;;;;;;;;;;5055589;28;20209;-62
2022/08/26 05:39:27;;;;;;;2.67;1.37;;;;;;;;;;5060546;28;20293;-62
2022/08/26 05:41:57;;;;;;;3.17;1.40;;;;;;;;;;5041640;28;20205;-62
2022/08/26 05:44:33;;;;;;;1.67;1.20;;;;;;;;;;5059346;28;20535;-62
2022/08/26 05:47:24;;;;;;;2.67;1.30;;;;;;;;;;5055156;28;20198;-64
2022/08/26 05:49:56;;;;;;;1.67;1.20;;;;;;;;;;5057824;28;20202;-64
2022/08/26 05:52:27;;;;;;;4.50;1.60;;;;;;;;;;5049217;28;20608;-65
2022/08/26 05:54:56;;;;;;;3.77;1.67;;;;;;;;;;5031849;28;20202;-65
2022/08/26 05:57:30;;;;;;;3.50;1.50;;;;;;;;;;5066212;28;20203;-65
2022/08/26 06:00:11;;;;;;;1.90;1.40;;;;;;;;;;5057176;28;20214;-65
2022/08/26 06:02:41;;;;;;;4.37;1.60;;;;;;;;;;5035055;28;20226;-65
2022/08/26 06:05:16;;;;;;;3.80;1.37;;;;;;;;;;5057254;28;20616;-65
2022/08/26 06:10:49;;;;;;;3.60;1.60;;;;;;;;;;5059360;28;20285;-65
2022/08/26 06:13:26;;;;;;;4.97;1.23;;;;;;;;;;5055096;28;20194;-65
2022/08/26 06:16:01;;;;;;;2.50;1.50;;;;;;;;;;5047132;28;20608;-66
2022/08/26 06:18:35;;;;;;;3.90;1.60;;;;;;;;;;5051161;28;20207;-65
2022/08/26 06:21:22;;;;;;;2.73;1.23;;;;;;;;;;5049912;28;20198;-64
2022/08/26 06:26:51;;;;;;;2.63;1.10;;;;;;;;;;5056064;28;20203;-65
2022/08/26 06:29:24;;;;;;;2.70;1.30;;;;;;;;;;5066233;28;20177;-65
2022/08/26 06:31:54;;;;;;;3.87;1.40;;;;;;;;;;5049669;28;20214;-62
2022/08/26 06:34:24;;;;;;;3.90;1.50;;;;;;;;;;5063827;28;20225;-63
2022/08/26 06:37:04;;;;;;;4.37;1.20;;;;;;;;;;5063774;28;20201;-62
2022/08/26 06:39:36;;;;;;;2.97;1.40;;;;;;;;;;5046311;28;20569;-62
2022/08/26 06:42:07;;;;;;;3.77;1.60;;;;;;;;;;5068490;28;20266;-64
2022/08/26 06:44:48;;;;;;;3.70;1.40;;;;;;;;;;5043583;28;20710;-65
2022/08/26 06:47:19;;;;;;;4.27;1.40;;;;;;;;;;5040704;28;20259;-68
2022/08/26 06:49:54;;;;;;;4.80;1.87;;;;;;;;;;5057583;28;20210;-68
2022/08/26 06:52:24;;;;;;;6.70;1.83;;;;;;;;;;5053456;28;20217;-65
2022/08/26 06:54:58;;;;;;;9.53;1.70;;;;;;;;;;5057155;28;20214;-65
2022/08/26 06:57:33;;;;;;;2.63;1.40;;;;;;;;;;5049339;28;20209;-64
2022/08/26 07:00:09;;;;;;;5.60;1.97;;;;;;;;;;5061329;28;20198;-66
2022/08/26 07:02:40;;;;;;;4.57;1.70;;;;;;;;;;5062511;28;20639;-68
2022/08/26 07:05:19;;;;;;;4.30;1.80;;;;;;;;;;5062556;28;20217;-68
2022/08/26 07:07:51;;;;;;;3.50;1.53;;;;;;;;;;5050718;28;20264;-67
2022/08/26 07:10:21;;;;;;;4.00;1.50;;;;;;;;;;5058358;28;20205;-65
2022/08/26 07:12:54;;;;;;;6.23;1.87;;;;;;;;;;5064236;28;20189;-64
2022/08/26 07:15:27;;;;;;;3.23;1.30;;;;;;;;;;5063129;28;20191;-66
2022/08/26 07:18:01;;;;;;;6.17;1.97;;;;;;;;;;5047548;28;20638;-65
2022/08/26 07:20:31;;;;;;;3.80;1.57;;;;;;;;;;5061949;28;20218;-68
2022/08/26 07:23:00;;;;;;;4.70;1.77;;;;;;;;;;5046585;28;20267;-65
2022/08/26 07:25:39;;;;;;;3.37;1.70;;;;;;;;;;5056922;28;20224;-64
2022/08/26 07:28:12;;;;;;;6.93;1.70;;;;;;;;;;5065975;28;20224;-66
2022/08/26 07:30:41;;;;;;;4.67;1.50;;;;;;;;;;5060596;28;20194;-71
2022/08/26 07:33:10;;;;;;;4.27;1.37;;;;;;;;;;5063078;28;20197;-69
2022/08/26 07:35:43;;;;;;;5.40;1.67;;;;;;;;;;5065973;28;20201;-66
2022/08/26 07:38:15;;;;;;;8.47;1.90;;;;;;;;;;5056689;28;20270;-64
2022/08/26 07:41:00;;;;;;;10.60;1.60;;;;;;;;;;5061687;28;20225;-65
2022/08/26 07:43:31;;;;;;;3.63;1.70;;;;;;;;;;5059021;28;20213;-65
2022/08/26 07:46:04;;;;;;;4.83;1.57;;;;;;;;;;5046616;28;20202;-68
2022/08/26 07:48:36;;;;;;;5.80;1.70;;;;;;;;;;5027873;28;20194;-68
2022/08/26 07:51:15;;;;;;;4.27;1.50;;;;;;;;;;5050072;28;20279;-66
2022/08/26 07:53:48;;;;;;;3.77;1.70;;;;;;;;;;5046802;28;20229;-65
2022/08/26 07:56:22;;;;;;;5.50;2.00;;;;;;;;;;5057603;28;20565;-67
2022/08/26 07:58:56;;;;;;;4.23;1.80;;;;;;;;;;5062032;28;20217;-69
2022/08/26 08:01:28;;;;;;;8.23;2.23;;;;;;;;;;5063544;28;20181;-70
2022/08/26 08:04:16;;;;;;;8.50;2.10;;;;;;;;;;5065514;28;20642;-68
2022/08/26 08:06:55;;;;;;;6.03;1.90;;;;;;;;;;5058917;28;20299;-66
2022/08/26 08:09:27;;;;;;;4.53;1.83;;;;;;;;;;5060829;28;20192;-66
2022/08/26 08:12:01;;;;;;;7.17;2.03;;;;;;;;;;5065431;28;20189;-64
2022/08/26 08:14:33;;;;;;;4.60;1.80;;;;;;;;;;5041964;28;20196;-65
2022/08/26 08:17:14;;;;;;;6.40;1.90;;;;;;;;;;5057263;28;20229;-69
2022/08/26 08:19:45;;;;;;;3.73;1.73;;;;;;;;;;5043016;28;20240;-71
2022/08/26 08:22:22;;;;;;;5.17;1.90;;;;;;;;;;5044178;28;20241;-70
2022/08/26 08:24:55;;;;;;;3.90;1.80;;;;;;;;;;5058840;28;20237;-69
2022/08/26 08:27:27;;;;;;;5.00;1.80;;;;;;;;;;5058719;28;20194;-66
2022/08/26 08:30:00;;;;;;;5.77;1.97;;;;;;;;;;5044322;28;20197;-65
2022/08/26 08:32:31;;;;;;;3.57;1.70;;;;;;;;;;5050084;28;20221;-69
2022/08/26 08:35:05;;;;;;;3.03;1.43;;;;;;;;;;5064719;28;20206;-69
2022/08/26 08:37:41;;;;;;;4.63;1.53;;;;;;;;;;5061562;28;20299;-69
2022/08/26 08:40:24;;;;;;;3.57;1.40;;;;;;;;;;5063210;28;20212;-69
2022/08/26 08:43:16;;;;;;;7.53;1.83;;;;;;;;;;5053586;28;20534;-64
2022/08/26 08:45:51;;;;;;;5.17;1.57;;;;;;;;;;5059297;28;20214;-64
2022/08/26 08:48:34;;;;;;;4.77;1.97;;;;;;;;;;5054650;28;20272;-63
2022/08/26 08:51:23;;;;;;;3.93;1.47;;;;;;;;;;5061536;28;20205;-61
2022/08/26 08:54:04;;;;;;;4.43;1.53;;;;;;;;;;5041315;28;20336;-61
2022/08/26 08:56:52;;;;;;;2.70;1.30;;;;;;;;;;5054784;28;20636;-63
2022/08/26 08:59:27;;;;;;;8.40;2.10;;;;;;;;;;5059146;28;21285;-66
2022/08/26 09:01:59;;;;;;;4.53;1.53;;;;;;;;;;5042993;28;20197;-73
2022/08/26 09:04:45;;;;;;;4.67;1.70;;;;;;;;;;5047936;28;20194;-71
2022/08/26 09:07:20;;;;;;;3.10;1.20;;;;;;;;;;5058746;28;20329;-69
2022/08/26 09:09:58;;;;;;;4.60;1.30;;;;;;;;;;5062923;28;20204;-70
2022/08/26 09:12:29;;;;;;;5.70;1.80;;;;;;;;;;5047858;28;20193;-68
2022/08/26 09:15:23;;;;;;;6.83;1.63;;;;;;;;;;5048670;28;20595;-71
2022/08/26 09:18:01;;;;;;;4.07;1.67;;;;;;;;;;5055563;28;20206;-66
2022/08/26 09:20:48;;;;;;;7.30;1.50;;;;;;;;;;5054607;28;20229;-70
2022/08/26 09:23:17;;;;;;;4.33;1.57;;;;;;;;;;5048014;28;20259;-69
2022/08/26 09:25:59;;;;;;;6.33;2.07;;;;;;;;;;5042604;28;20214;-69
2022/08/26 09:28:31;;;;;;;3.60;1.27;;;;;;;;;;5050842;28;20201;-69
2022/08/26 09:31:01;;;;;;;3.83;1.27;;;;;;;;;;5040227;28;20211;-69
2022/08/26 09:33:39;;;;;;;5.13;1.37;;;;;;;;;;5053913;28;20190;-68
2022/08/26 09:36:42;;;;;;;2.80;1.33;;;;;;;;;;5044494;28;20241;-68
2022/08/26 09:39:30;;;;;;;3.40;1.30;;;;;;;;;;5061172;28;20198;-70
2022/08/26 09:42:18;;;;;;;3.90;1.37;;;;;;;;;;5045749;28;20207;-64
2022/08/26 09:44:52;;;;;;;5.93;1.57;;;;;;;;;;5042283;28;20541;-66
2022/08/26 09:47:38;;;;;;;5.53;2.00;;;;;;;;;;5059791;28;20222;-67
2022/08/26 09:50:46;;;;;;;3.43;1.30;;;;;;;;;;5045496;28;20211;-68
2022/08/26 09:53:33;;;;;;;4.00;1.60;;;;;;;;;;4962086;28;20204;-68
2022/08/26 09:56:19;;;;;;;4.73;1.63;;;;;;;;;;5035737;28;20663;-69
2022/08/26 09:58:49;;;;;;;4.67;1.33;;;;;;;;;;5036555;28;20213;-68
2022/08/26 10:01:42;;;;;;;5.00;1.70;;;;;;;;;;5044743;28;20217;-65
2022/08/26 10:04:28;;;;;;;4.33;1.47;;;;;;;;;;5060257;28;20263;-66
2022/08/26 10:07:06;;;;;;;5.67;1.50;;;;;;;;;;5051968;28;20314;-66
2022/08/26 10:09:44;;;;;;;3.30;1.20;;;;;;;;;;5043680;28;20915;-65
2022/08/26 10:12:49;;;;;;;3.60;1.47;;;;;;;;;;5055219;28;20229;-66
2022/08/26 10:15:23;;;;;;;2.53;1.20;;;;;;;;;;5056891;28;20194;-67
2022/08/26 10:18:01;;;;;;;5.53;1.57;;;;;;;;;;5042605;28;20763;-67
2022/08/26 10:20:35;;;;;;;8.97;1.50;;;;;;;;;;5054834;28;20350;-65
2022/08/26 10:23:33;;;;;;;3.03;1.40;;;;;;;;;;5034736;28;20255;-65
2022/08/26 10:26:23;;;;;;;4.67;1.47;;;;;;;;;;5055339;28;20226;-65
2022/08/26 10:29:07;;;;;;;4.10;1.40;;;;;;;;;;5060461;28;20205;-65
2022/08/26 10:31:43;;;;;;;6.07;1.63;;;;;;;;;;5043249;28;20241;-67
2022/08/26 10:34:18;;;;;;;3.10;1.60;;;;;;;;;;5059496;28;20224;-67
2022/08/26 10:37:11;;;;;;;5.57;1.93;;;;;;;;;;5042495;28;20671;-66
2022/08/26 10:39:56;;;;;;;7.63;2.03;;;;;;;;;;5043423;28;20531;-66
2022/08/26 10:42:42;;;;;;;3.63;1.60;;;;;;;;;;5043625;28;20654;-66
2022/08/26 10:45:16;;;;;;;5.57;1.60;;;;;;;;;;5066880;28;20216;-65
2022/08/26 10:47:59;;;;;;;4.50;1.47;;;;;;;;;;5045375;28;20224;-65
2022/08/26 10:50:38;;;;;;;5.43;1.80;;;;;;;;;;5063824;28;20255;-65
2022/08/26 10:53:21;;;;;;;6.13;1.90;;;;;;;;;;5061303;28;20304;-65
2022/08/26 10:56:13;;;;;;;5.97;1.67;;;;;;;;;;5058950;28;20209;-66
2022/08/26 10:58:52;;;;;;;5.60;1.50;;;;;;;;;;5060799;28;20209;-66
2022/08/26 11:01:42;;;;;;;3.97;1.73;;;;;;;;;;5061372;28;20197;-66
2022/08/26 11:04:32;;;;;;;5.93;2.07;;;;;;;;;;5063427;28;20201;-65
2022/08/26 11:07:22;;;;;;;5.23;1.70;;;;;;;;;;5052604;28;20245;-66
2022/08/26 11:09:52;;;;;;;6.90;1.57;;;;;;;;;;5063104;28;20556;-66
2022/08/26 11:12:39;;;;;;;5.57;1.67;;;;;;;;;;5059445;28;20210;-67
2022/08/26 11:15:28;;;;;;;8.47;1.93;;;;;;;;;;5063326;28;20193;-65
2022/08/26 11:18:06;;;;;;;4.93;1.50;;;;;;;;;;5063078;28;21604;-65
2022/08/26 11:20:52;;;;;;;6.23;1.77;;;;;;;;;;5034406;28;20264;-67
2022/08/26 11:23:30;;;;;;;5.77;1.40;;;;;;;;;;5057993;28;20205;-66
2022/08/26 11:26:13;;;;;;;5.47;1.40;;;;;;;;;;5065353;28;20213;-67
2022/08/26 11:29:06;;;;;;;4.50;1.93;;;;;;;;;;5063682;28;20202;-67
2022/08/26 11:31:49;;;;;;;4.47;1.47;;;;;;;;;;5038548;28;20311;-70
2022/08/26 11:34:39;;;;;;;5.27;1.70;;;;;;;;;;5062411;28;20667;-71
2022/08/26 11:37:13;;;;;;;4.70;1.77;;;;;;;;;;5063793;28;20202;-72
2022/08/26 11:39:49;;;;;;;7.50;1.87;;;;;;;;;;5057577;28;20656;-69
2022/08/26 11:42:24;;;;;;;7.47;1.63;;;;;;;;;;5057553;28;20194;-68
2022/08/26 11:44:57;;;;;;;5.73;1.60;;;;;;;;;;5058314;28;20245;-68
2022/08/26 11:47:34;;;;;;;5.37;1.53;;;;;;;;;;5057023;28;20202;-70
2022/08/26 11:50:24;;;;;;;5.20;1.50;;;;;;;;;;5060609;28;20243;-71
2022/08/26 11:52:55;;;;;;;4.87;1.77;;;;;;;;;;5046155;28;20186;-70
2022/08/26 11:55:29;;;;;;;5.67;1.77;;;;;;;;;;5057314;28;20214;-68
2022/08/26 11:58:00;;;;;;;4.63;1.70;;;;;;;;;;5048787;28;20198;-66
2022/08/26 12:00:54;;;;;;;6.57;1.80;;;;;;;;;;5020433;28;20216;-68
2022/08/26 12:03:50;;;;;;;4.40;1.53;;;;;;;;;;5060450;28;20206;-65
2022/08/26 12:06:38;;;;;;;4.63;1.60;;;;;;;;;;5056862;28;20799;-64
2022/08/26 12:09:20;;;;;;;7.00;1.77;;;;;;;;;;5039638;28;20225;-70
2022/08/26 12:11:52;;;;;;;3.50;1.23;;;;;;;;;;5018997;28;20213;-68
2022/08/26 12:14:26;;;;;;;6.43;1.90;;;;;;;;;;5040662;28;20194;-67
2022/08/26 12:17:08;;;;;;;3.27;1.33;;;;;;;;;;5043133;28;20195;-68
2022/08/26 12:19:37;;;;;;;5.00;1.70;;;;;;;;;;5021743;28;20594;-71
2022/08/26 12:22:20;;;;;;;4.90;1.53;;;;;;;;;;5043191;28;20287;-70
2022/08/26 12:25:03;;;;;;;4.33;1.43;;;;;;;;;;5036745;28;20198;-68
2022/08/26 12:27:41;;;;;;;3.80;1.20;;;;;;;;;;5022285;28;20217;-71
2022/08/26 12:30:22;;;;;;;5.33;1.50;;;;;;;;;;5027840;28;20201;-72
2022/08/26 12:33:11;;;;;;;3.67;1.50;;;;;;;;;;5018129;28;20217;-70
2022/08/26 12:35:52;;;;;;;4.90;1.40;;;;;;;;;;5046316;28;20217;-67
2022/08/26 12:38:26;;;;;;;2.67;1.37;;;;;;;;;;5045925;28;20203;-69
2022/08/26 12:40:58;;;;;;;4.47;1.30;;;;;;;;;;5048315;28;20644;-71
2022/08/26 12:43:45;;;;;;;4.20;1.57;;;;;;;;;;5023919;28;20297;-65
2022/08/26 12:46:24;;;;;;;4.10;1.50;;;;;;;;;;5042821;28;20735;-64
2022/08/26 12:48:53;;;;;;;5.77;1.60;;;;;;;;;;5031886;28;20186;-63
2022/08/26 12:51:30;;;;;;;3.47;1.40;;;;;;;;;;5038853;28;20301;-64
2022/08/26 12:54:05;;;;;;;5.40;1.43;;;;;;;;;;5032395;28;20277;-64
2022/08/26 12:56:37;;;;;;;3.87;1.57;;;;;;;;;;5022152;28;20210;-63
2022/08/26 12:59:23;;;;;;;6.80;1.73;;;;;;;;;;5029182;28;20190;-63
2022/08/26 13:01:53;;;;;;;4.47;1.40;;;;;;;;;;5017971;28;20344;-65
2022/08/26 13:04:43;;;;;;;6.00;1.70;;;;;;;;;;5045181;28;20194;-65
2022/08/26 13:07:25;;;;;;;6.23;1.83;;;;;;;;;;5044589;28;20635;-65
2022/08/26 13:09:56;;;;;;;2.53;1.53;;;;;;;;;;5045903;28;20577;-66
2022/08/26 13:12:46;;;;;;;4.30;1.20;;;;;;;;;;5043100;28;20289;-66
2022/08/26 13:15:19;;;;;;;4.73;1.80;;;;;;;;;;5066399;28;20275;-65
2022/08/26 13:17:52;;;;;;;4.53;1.30;;;;;;;;;;5065097;28;20197;-66
2022/08/26 13:20:25;;;;;;;5.73;1.57;;;;;;;;;;5055547;28;20205;-63
2022/08/26 13:22:57;;;;;;;4.23;1.73;;;;;;;;;;5057059;28;20190;-66
2022/08/26 13:25:31;;;;;;;5.77;1.20;;;;;;;;;;5053234;28;20290;-64
2022/08/26 13:28:00;;;;;;;6.70;1.53;;;;;;;;;;5061103;28;20189;-66
2022/08/26 13:30:31;;;;;;;4.53;1.67;;;;;;;;;;5054279;28;20194;-63
2022/08/26 13:33:03;;;;;;;7.37;1.70;;;;;;;;;;5063290;28;20260;-65
2022/08/26 13:35:36;;;;;;;5.70;1.50;;;;;;;;;;5066024;28;20557;-64
2022/08/26 13:38:13;;;;;;;3.10;1.30;;;;;;;;;;5061796;28;20231;-65
2022/08/26 13:41:05;;;;;;;2.00;1.20;;;;;;;;;;5065489;28;20186;-69
2022/08/26 13:43:33;;;;;;;4.80;1.33;;;;;;;;;;5053943;28;20213;-65
2022/08/26 13:46:03;;;;;;;4.37;1.60;;;;;;;;;;5062963;28;20853;-67
2022/08/26 13:48:37;;;;;;;3.23;1.57;;;;;;;;;;5060715;28;20198;-66
2022/08/26 13:51:13;;;;;;;4.73;1.33;;;;;;;;;;5064653;28;20316;-66
2022/08/26 13:53:48;;;;;;;6.13;2.10;;;;;;;;;;5065210;28;20201;-66
2022/08/26 13:56:20;;;;;;;3.60;1.57;;;;;;;;;;5063145;28;20225;-64
2022/08/26 13:58:51;;;;;;;5.87;1.43;;;;;;;;;;5041002;28;20211;-64
2022/08/26 14:01:22;;;;;;;4.37;1.67;;;;;;;;;;5059956;28;20201;-65
2022/08/26 14:04:07;;;;;;;3.73;1.80;;;;;;;;;;5043535;28;20221;-65
2022/08/26 14:06:37;;;;;;;3.23;1.20;;;;;;;;;;5053419;28;20248;-63
2022/08/26 14:09:08;;;;;;;3.57;1.37;;;;;;;;;;5064408;28;20205;-66
2022/08/26 14:11:38;;;;;;;4.70;1.30;;;;;;;;;;5060701;28;20198;-64
2022/08/26 14:14:23;;;;;;;4.20;1.30;;;;;;;;;;5061634;28;20634;-64
2022/08/26 14:16:54;;;;;;;2.87;1.27;;;;;;;;;;5055520;28;20214;-66
2022/08/26 14:19:28;;;;;;;3.37;1.37;;;;;;;;;;5057821;28;20227;-65
2022/08/26 14:21:59;;;;;;;4.57;1.50;;;;;;;;;;5065262;28;20213;-63
2022/08/26 14:24:30;;;;;;;5.60;1.73;;;;;;;;;;5056298;28;20205;-63
2022/08/26 14:27:00;;;;;;;5.27;1.47;;;;;;;;;;5046480;28;20217;-64
2022/08/26 14:29:29;;;;;;;2.80;1.17;;;;;;;;;;5056903;28;20212;-64
2022/08/26 14:32:01;;;;;;;3.10;1.10;;;;;;;;;;5058432;28;20218;-61
2022/08/26 14:34:30;;;;;;;4.23;1.47;;;;;;;;;;5045589;28;20193;-63
2022/08/26 14:36:59;;;;;;;4.13;1.50;;;;;;;;;;5061392;28;20197;-63
2022/08/26 14:39:36;;;;;;;4.20;1.40;;;;;;;;;;5046777;28;20758;-63
2022/08/26 14:42:08;;;;;;;6.67;1.30;;;;;;;;;;5031710;28;20190;-64
2022/08/26 14:44:47;;;;;;;3.13;1.27;;;;;;;;;;5056228;28;20216;-64
2022/08/26 14:47:18;;;;;;;5.40;1.47;;;;;;;;;;5065433;28;20220;-64
2022/08/26 14:49:49;;;;;;;3.10;1.40;;;;;;;;;;5065125;28;20657;-61
2022/08/26 14:52:22;;;;;;;3.50;1.40;;;;;;;;;;5062306;28;20266;-62
2022/08/26 14:54:53;;;;;;;3.23;1.20;;;;;;;;;;5062300;28;23145;-62
2022/08/26 14:57:24;;;;;;;4.00;1.13;;;;;;;;;;5064892;28;20205;-62
2022/08/26 14:59:53;;;;;;;2.63;1.10;;;;;;;;;;5064698;28;20226;-62
2022/08/26 15:02:25;;;;;;;2.90;1.27;;;;;;;;;;5062646;28;20272;-63
2022/08/26 15:05:07;;;;;;;3.70;1.40;;;;;;;;;;5066293;28;20894;-63
2022/08/26 15:07:51;;;;;;;1.87;1.00;;;;;;;;;;5038374;28;20265;-62
2022/08/26 15:10:21;;;;;;;3.30;1.30;;;;;;;;;;5027871;28;20259;-62
2022/08/26 15:12:51;;;;;;;2.03;1.00;;;;;;;;;;5037761;28;20204;-62
2022/08/26 15:15:22;;;;;;;3.50;1.10;;;;;;;;;;5041187;28;20241;-63
2022/08/26 15:17:52;;;;;;;3.50;1.10;;;;;;;;;;5041423;28;20194;-63
2022/08/26 15:20:21;;;;;;;4.10;1.03;;;;;;;;;;5037258;28;20284;-62
2022/08/26 15:22:52;;;;;;;5.83;0.90;;;;;;;;;;5036750;28;20190;-62
2022/08/26 15:25:19;;;;;;;1.97;0.90;;;;;;;;;;5043209;28;20235;-64
2022/08/26 15:27:49;;;;;;;5.23;1.00;;;;;;;;;;5042635;28;20234;-64
2022/08/26 15:30:17;;;;;;;2.70;1.30;;;;;;;;;;5043435;28;20588;-64
2022/08/26 15:32:53;;;;;;;2.43;1.17;;;;;;;;;;5033881;28;20382;-62
2022/08/26 15:35:25;;;;;;;2.67;0.97;;;;;;;;;;5039019;28;20198;-62
2022/08/26 15:37:55;;;;;;;3.23;1.03;;;;;;;;;;5041994;28;20199;-63
2022/08/26 15:40:27;;;;;;;4.27;1.13;;;;;;;;;;5034342;28;20195;-63
2022/08/26 15:42:57;;;;;;;2.00;0.80;;;;;;;;;;5043051;28;20225;-62